Time;durP1;ratioP1;P1;durP2;ratioP2;P2;SDS_P1;SDS_P2;PMS_P1;PMS_P2;Temp;Humidity;BMP_temperature;BMP_pressure;BME280_temperature;BME280_humidity;BME280_pressure;Samples;Min_cycle;Max_cycle;Signal;HPM_P1;HPM_P2
2021/03/20 00:01:38;;;;;;;27.33;17.02;;;4.90;99.90;;;;;;5060630;28;20016;-78
2021/03/20 00:04:04;;;;;;;30.17;16.58;;;4.90;99.90;;;;;;5062970;28;20031;-78
2021/03/20 00:06:35;;;;;;;27.00;17.10;;;4.70;99.90;;;;;;5071928;28;20078;-78
2021/03/20 00:09:05;;;;;;;30.95;17.58;;;4.90;99.90;;;;;;5071819;28;20113;-79
2021/03/20 00:11:30;;;;;;;24.67;15.90;;;4.90;99.90;;;;;;5061494;28;20029;-78
2021/03/20 00:13:58;;;;;;;26.63;15.63;;;5.00;99.90;;;;;;5051770;28;20035;-79
2021/03/20 00:16:24;;;;;;;23.65;15.10;;;5.00;99.90;;;;;;5051944;28;20053;-77
2021/03/20 00:18:50;;;;;;;27.00;15.60;;;4.90;99.90;;;;;;5051885;28;20435;-79
2021/03/20 00:21:16;;;;;;;28.25;16.02;;;4.50;99.90;;;;;;5050403;28;20029;-76
2021/03/20 00:23:42;;;;;;;28.80;17.27;;;4.80;99.90;;;;;;5061245;28;20108;-77
2021/03/20 00:26:08;;;;;;;29.17;17.05;;;5.00;99.90;;;;;;5071382;28;20071;-78
2021/03/20 00:28:34;;;;;;;32.42;17.13;;;4.90;99.90;;;;;;5071832;28;20029;-78
2021/03/20 00:31:04;;;;;;;25.83;17.60;;;4.70;99.90;;;;;;5071583;28;20111;-78
2021/03/20 00:33:31;;;;;;;29.17;17.00;;;4.70;99.90;;;;;;5071416;28;20047;-78
2021/03/20 00:35:57;;;;;;;27.08;16.33;;;4.70;99.90;;;;;;5071569;28;20016;-77
2021/03/20 00:38:25;;;;;;;30.70;17.77;;;4.90;99.90;;;;;;5071226;28;20025;-78
2021/03/20 00:40:53;;;;;;;37.13;21.13;;;4.90;99.90;;;;;;5071289;28;20032;-75
2021/03/20 00:43:19;;;;;;;32.33;20.73;;;4.80;99.90;;;;;;5071197;28;20031;-76
2021/03/20 00:45:45;;;;;;;26.42;17.65;;;4.90;99.90;;;;;;5081595;28;20035;-76
2021/03/20 00:48:14;;;;;;;23.55;16.67;;;4.80;99.90;;;;;;5091996;28;20031;-76
2021/03/20 00:50:40;;;;;;;22.58;15.88;;;4.90;99.90;;;;;;5091478;28;20036;-77
2021/03/20 00:53:06;;;;;;;24.45;16.95;;;5.10;99.90;;;;;;5089902;28;20062;-77
2021/03/20 00:55:32;;;;;;;27.10;17.02;;;5.00;99.90;;;;;;5091678;28;20382;-77
2021/03/20 00:57:58;;;;;;;25.40;16.38;;;4.90;99.90;;;;;;5082194;28;20463;-78
2021/03/20 01:00:27;;;;;;;26.70;15.00;;;5.10;99.90;;;;;;5070936;28;20537;-77
2021/03/20 01:02:53;;;;;;;25.00;15.80;;;4.90;99.90;;;;;;5071659;28;20089;-78
2021/03/20 01:05:19;;;;;;;26.30;16.27;;;4.90;99.90;;;;;;5071457;28;20047;-78
2021/03/20 01:07:46;;;;;;;26.67;15.75;;;4.70;99.90;;;;;;5071575;28;20032;-77
2021/03/20 01:10:17;;;;;;;22.90;16.42;;;4.60;99.90;;;;;;5070270;28;20090;-76
2021/03/20 01:12:43;;;;;;;23.63;16.45;;;4.60;99.90;;;;;;5070005;28;20033;-76
2021/03/20 01:15:10;;;;;;;25.17;16.40;;;4.90;99.90;;;;;;5069863;28;20373;-78
2021/03/20 01:17:36;;;;;;;26.88;16.55;;;4.90;99.90;;;;;;5071390;28;20082;-76
2021/03/20 01:20:04;;;;;;;24.17;16.48;;;4.60;99.90;;;;;;5071274;28;20017;-76
2021/03/20 01:22:30;;;;;;;29.88;18.15;;;4.80;99.90;;;;;;5071029;28;20028;-75
2021/03/20 01:24:56;;;;;;;27.98;18.05;;;4.40;99.90;;;;;;5071321;28;20070;-77
2021/03/20 01:27:21;;;;;;;30.63;18.02;;;4.40;99.90;;;;;;5069906;28;20029;-76
2021/03/20 01:29:47;;;;;;;30.27;17.75;;;4.40;99.90;;;;;;5070968;28;20082;-77
2021/03/20 01:32:13;;;;;;;30.73;18.40;;;4.50;99.90;;;;;;5071695;28;20047;-77
2021/03/20 01:34:39;;;;;;;30.45;18.73;;;4.60;99.90;;;;;;5071206;28;20032;-77
2021/03/20 01:37:05;;;;;;;34.33;20.00;;;4.60;99.90;;;;;;5069589;28;20028;-78
2021/03/20 01:39:31;;;;;;;31.02;20.00;;;4.50;99.90;;;;;;5071027;28;20027;-77
2021/03/20 01:41:56;;;;;;;30.58;18.20;;;4.40;99.90;;;;;;5071030;28;20032;-78
2021/03/20 01:44:24;;;;;;;34.00;20.00;;;4.40;99.90;;;;;;5069842;28;20472;-78
2021/03/20 01:46:53;;;;;;;35.03;19.70;;;4.60;99.90;;;;;;5087905;28;20039;-78
2021/03/20 01:49:36;;;;;;;29.55;19.13;;;4.60;99.90;;;;;;5091640;28;20032;-78
2021/03/20 01:52:25;;;;;;;31.08;19.17;;;4.60;99.90;;;;;;5094791;28;20054;-76
2021/03/20 01:54:58;;;;;;;28.83;17.42;;;4.60;99.90;;;;;;5095181;28;20028;-79
2021/03/20 01:57:32;;;;;;;26.95;17.20;;;4.60;99.90;;;;;;5095970;28;20475;-77
2021/03/20 01:59:59;;;;;;;24.75;16.00;;;4.20;99.90;;;;;;5095027;28;20030;-76
2021/03/20 02:02:25;;;;;;;26.48;14.88;;;4.10;99.90;;;;;;5093901;28;20035;-77
2021/03/20 02:04:51;;;;;;;22.00;14.77;;;4.40;99.90;;;;;;5095177;28;20020;-75
2021/03/20 02:07:18;;;;;;;23.40;14.43;;;4.40;99.90;;;;;;5094300;28;20430;-76
2021/03/20 02:09:44;;;;;;;22.38;14.38;;;4.50;99.90;;;;;;5095224;28;20028;-76
2021/03/20 02:12:40;;;;;;;20.63;13.88;;;4.30;99.90;;;;;;5095052;28;20032;-77
2021/03/20 02:15:19;;;;;;;22.27;14.75;;;4.40;99.90;;;;;;5084847;28;20074;-77
2021/03/20 02:18:26;;;;;;;24.15;13.68;;;4.10;99.90;;;;;;5094634;28;20029;-76
2021/03/20 02:21:19;;;;;;;18.80;12.68;;;4.00;99.90;;;;;;5094919;28;20026;-77
2021/03/20 02:23:57;;;;;;;18.80;12.23;;;4.00;99.90;;;;;;5094020;28;20020;-78
2021/03/20 02:27:11;;;;;;;18.05;12.50;;;3.90;99.90;;;;;;5094110;28;20020;-77
2021/03/20 02:29:49;;;;;;;22.25;13.68;;;3.90;99.90;;;;;;5089621;28;20039;-78
2021/03/20 02:32:36;;;;;;;18.77;11.88;;;3.60;99.90;;;;;;5093897;28;20123;-77
2021/03/20 02:35:17;;;;;;;21.20;11.95;;;3.70;99.90;;;;;;5094278;28;20032;-77
2021/03/20 02:38:03;;;;;;;17.02;11.20;;;3.70;99.90;;;;;;5093598;28;20020;-76
2021/03/20 02:40:55;;;;;;;16.73;11.18;;;3.70;99.90;;;;;;5093552;28;20411;-77
2021/03/20 02:43:36;;;;;;;18.85;12.00;;;3.70;99.90;;;;;;5094775;28;20051;-78
2021/03/20 02:46:13;;;;;;;17.00;11.20;;;3.70;99.90;;;;;;5085059;28;20089;-77
2021/03/20 02:48:54;;;;;;;18.95;12.45;;;3.70;99.90;;;;;;5074312;28;20423;-78
2021/03/20 02:51:45;;;;;;;18.98;11.70;;;3.80;99.90;;;;;;5074084;28;20048;-78
2021/03/20 02:54:16;;;;;;;19.65;11.00;;;3.90;99.90;;;;;;5070336;28;20412;-77
2021/03/20 02:56:50;;;;;;;18.10;11.38;;;3.80;99.90;;;;;;5072829;28;20067;-77
2021/03/20 02:59:19;;;;;;;16.52;11.63;;;3.70;99.90;;;;;;5074413;28;20021;-77
2021/03/20 03:01:48;;;;;;;18.05;12.20;;;3.70;99.90;;;;;;5074130;28;20078;-77
2021/03/20 03:04:19;;;;;;;17.98;11.38;;;3.70;99.90;;;;;;5074150;28;20373;-78
2021/03/20 03:06:49;;;;;;;;;;;3.40;99.90;;;;;;5074703;28;20025;-77
2021/03/20 03:09:23;;;;;;;19.42;12.40;;;3.60;99.90;;;;;;5074311;28;19908;-77
2021/03/20 03:12:01;;;;;;;18.67;11.93;;;3.60;99.90;;;;;;5073980;28;20060;-77
2021/03/20 03:14:43;;;;;;;21.42;12.15;;;3.50;99.90;;;;;;5073890;28;20169;-78
2021/03/20 03:17:10;;;;;;;22.25;12.65;;;3.60;99.90;;;;;;5071650;28;20032;-77
2021/03/20 03:20:00;;;;;;;23.17;12.15;;;3.60;99.90;;;;;;5073797;28;20031;-77
2021/03/20 03:22:43;;;;;;;19.02;12.77;;;3.70;99.90;;;;;;5073427;28;20399;-77
2021/03/20 03:25:13;;;;;;;16.90;12.27;;;3.70;99.90;;;;;;5073704;28;20029;-77
2021/03/20 03:27:43;;;;;;;20.33;12.18;;;3.80;99.90;;;;;;5072260;28;20123;-77
2021/03/20 03:30:14;;;;;;;16.77;11.80;;;3.60;99.90;;;;;;5071985;28;20033;-77
2021/03/20 03:32:50;;;;;;;17.77;12.02;;;3.60;99.90;;;;;;5073407;28;20044;-76
2021/03/20 03:35:54;;;;;;;21.02;12.48;;;3.60;99.90;;;;;;5073387;28;20376;-75
2021/03/20 03:38:28;;;;;;;18.25;12.15;;;3.60;99.90;;;;;;5065658;28;20037;-75
2021/03/20 03:41:16;;;;;;;19.23;13.25;;;3.70;99.90;;;;;;5073522;28;20426;-76
2021/03/20 03:43:44;;;;;;;23.30;13.10;;;3.90;99.90;;;;;;5073395;28;20020;-76
2021/03/20 03:46:11;;;;;;;19.75;12.38;;;3.90;99.90;;;;;;5081611;28;20451;-76
2021/03/20 03:48:37;;;;;;;18.67;12.68;;;3.90;99.90;;;;;;5093088;28;20039;-76
2021/03/20 03:51:13;;;;;;;20.02;12.30;;;3.80;99.90;;;;;;5092724;28;20044;-76
2021/03/20 03:53:40;;;;;;;19.77;13.15;;;3.70;99.90;;;;;;5091924;28;20748;-76
2021/03/20 03:56:44;;;;;;;20.27;12.70;;;3.70;99.90;;;;;;5092585;28;20020;-76
2021/03/20 03:59:38;;;;;;;21.38;13.35;;;3.90;99.90;;;;;;5092998;28;20517;-77
2021/03/20 04:02:27;;;;;;;20.08;13.70;;;3.90;99.90;;;;;;5092802;28;20089;-77
2021/03/20 04:05:24;;;;;;;23.02;14.27;;;3.90;99.90;;;;;;5093405;28;20028;-76
2021/03/20 04:08:12;;;;;;;23.17;14.38;;;3.90;99.90;;;;;;5092801;28;20439;-76
2021/03/20 04:10:45;;;;;;;22.95;15.02;;;3.90;99.90;;;;;;5093551;28;20024;-77
2021/03/20 04:13:23;;;;;;;22.92;14.27;;;3.90;99.90;;;;;;5090887;28;20368;-77
2021/03/20 04:15:58;;;;;;;24.58;14.38;;;3.90;99.90;;;;;;5091254;28;20021;-77
2021/03/20 04:18:55;;;;;;;24.50;14.93;;;3.70;99.90;;;;;;5092823;28;20111;-76
2021/03/20 04:21:31;;;;;;;24.73;15.40;;;3.80;99.90;;;;;;5092641;28;20074;-76
2021/03/20 04:24:21;;;;;;;21.92;14.00;;;3.80;99.90;;;;;;5093077;28;20020;-76
2021/03/20 04:27:01;;;;;;;24.08;14.55;;;3.80;99.90;;;;;;5091554;28;20032;-76
2021/03/20 04:29:46;;;;;;;22.70;14.48;;;3.70;99.90;;;;;;5092645;28;20374;-76
2021/03/20 04:32:21;;;;;;;25.00;15.40;;;3.80;99.90;;;;;;5092585;28;20044;-75
2021/03/20 04:35:12;;;;;;;22.85;14.00;;;3.70;99.90;;;;;;5092034;28;20043;-75
2021/03/20 04:37:41;;;;;;;21.08;14.82;;;3.80;99.90;;;;;;5091959;28;20028;-76
2021/03/20 04:40:17;;;;;;;20.20;13.40;;;3.70;99.90;;;;;;5092550;28;20417;-76
2021/03/20 04:42:43;;;;;;;22.52;14.98;;;3.90;99.90;;;;;;5092634;28;20028;-76
2021/03/20 04:45:24;;;;;;;21.20;14.38;;;4.00;99.90;;;;;;5092353;28;20027;-76
2021/03/20 04:47:50;;;;;;;;;;;4.00;99.90;;;;;;5052418;28;20037;-76
2021/03/20 04:50:25;;;;;;;21.38;13.93;;;4.00;99.90;;;;;;5051877;28;19904;-76
2021/03/20 04:52:53;;;;;;;22.40;14.20;;;4.20;99.90;;;;;;5050188;28;20048;-76
2021/03/20 04:55:19;;;;;;;25.52;15.05;;;4.30;99.90;;;;;;5051834;28;20029;-77
2021/03/20 04:57:58;;;;;;;24.35;14.98;;;4.00;99.90;;;;;;5051175;28;20036;-77
2021/03/20 05:00:36;;;;;;;23.52;13.88;;;4.10;99.90;;;;;;5051827;28;20040;-78
2021/03/20 05:03:20;;;;;;;22.67;14.18;;;4.10;99.90;;;;;;5052010;28;20495;-78
2021/03/20 05:05:52;;;;;;;21.35;14.57;;;3.90;99.90;;;;;;5052281;28;20452;-77
2021/03/20 05:08:30;;;;;;;21.02;15.18;;;3.80;99.90;;;;;;5051105;28;20380;-77
2021/03/20 05:11:04;;;;;;;25.67;14.65;;;3.90;99.90;;;;;;5052133;28;20029;-78
2021/03/20 05:13:53;;;;;;;21.92;15.20;;;4.10;99.90;;;;;;5050335;28;20037;-77
2021/03/20 05:16:18;;;;;;;22.50;14.30;;;4.20;99.90;;;;;;5049946;28;20040;-75
2021/03/20 05:18:46;;;;;;;21.70;14.90;;;4.30;99.90;;;;;;5050458;28;20036;-77
2021/03/20 05:21:16;;;;;;;28.60;15.80;;;4.40;99.90;;;;;;5050938;28;20116;-77
2021/03/20 05:23:41;;;;;;;23.92;15.55;;;4.50;99.90;;;;;;5052169;28;20100;-78
2021/03/20 05:26:07;;;;;;;24.55;15.80;;;4.30;99.90;;;;;;5054845;28;20139;-78
2021/03/20 05:28:33;;;;;;;25.05;15.95;;;4.20;99.90;;;;;;5055658;28;20032;-78
2021/03/20 05:31:01;;;;;;;25.95;15.88;;;4.30;99.90;;;;;;5054354;28;20025;-77
2021/03/20 05:33:27;;;;;;;25.05;16.10;;;4.40;99.90;;;;;;5055569;28;20040;-77
2021/03/20 05:35:53;;;;;;;24.45;16.33;;;4.50;99.90;;;;;;5056116;28;20090;-76
2021/03/20 05:38:19;;;;;;;26.45;15.55;;;4.50;99.90;;;;;;5055646;28;20029;-76
2021/03/20 05:40:45;;;;;;;26.45;16.10;;;4.60;99.90;;;;;;5055883;28;20100;-76
2021/03/20 05:43:23;;;;;;;28.00;17.10;;;4.70;99.90;;;;;;5055020;28;20136;-76
2021/03/20 05:45:51;;;;;;;25.20;16.08;;;4.70;99.90;;;;;;5061125;28;20016;-77
2021/03/20 05:48:22;;;;;;;24.55;16.50;;;4.70;99.90;;;;;;5094178;28;20028;-77
2021/03/20 05:51:21;;;;;;;25.42;15.98;;;4.70;99.90;;;;;;5095266;28;20039;-77
2021/03/20 05:54:10;;;;;;;26.73;15.55;;;4.50;99.90;;;;;;5093595;28;20119;-77
2021/03/20 05:56:40;;;;;;;24.88;15.07;;;4.20;99.90;;;;;;5095724;28;20028;-77
2021/03/20 05:59:12;;;;;;;;;;;4.50;99.90;;;;;;5095792;28;20378;-77
2021/03/20 06:02:16;;;;;;;21.75;13.85;;;4.40;99.90;;;;;;5095718;28;19911;-77
2021/03/20 06:04:46;;;;;;;26.88;14.60;;;4.60;99.90;;;;;;5095832;28;20035;-77
2021/03/20 06:07:31;;;;;;;20.60;13.90;;;4.60;99.90;;;;;;5095503;28;20028;-77
2021/03/20 06:10:11;;;;;;;23.60;14.40;;;4.60;99.90;;;;;;5095424;28;20028;-77
2021/03/20 06:13:06;;;;;;;24.77;15.00;;;4.70;99.90;;;;;;5093704;28;20194;-77
2021/03/20 06:15:59;;;;;;;24.48;16.13;;;4.70;99.90;;;;;;5094111;28;20031;-78
2021/03/20 06:18:37;;;;;;;26.02;15.48;;;4.80;99.90;;;;;;5094013;28;20032;-77
2021/03/20 06:21:11;;;;;;;23.38;14.95;;;4.80;99.90;;;;;;5095555;28;20051;-79
2021/03/20 06:24:07;;;;;;;25.98;14.52;;;4.90;99.90;;;;;;5095161;28;20024;-77
2021/03/20 06:26:39;;;;;;;22.30;13.25;;;5.10;99.90;;;;;;5095172;28;20020;-76
2021/03/20 06:29:23;;;;;;;21.77;13.60;;;5.00;99.90;;;;;;5095181;28;20013;-78
2021/03/20 06:32:01;;;;;;;23.23;13.98;;;5.10;99.90;;;;;;5095376;28;20027;-78
2021/03/20 06:34:35;;;;;;;25.60;14.20;;;5.30;99.90;;;;;;5094937;28;20054;-77
2021/03/20 06:37:14;;;;;;;18.15;13.20;;;5.20;99.90;;;;;;5092383;28;20410;-77
2021/03/20 06:40:13;;;;;;;20.77;14.02;;;5.30;99.90;;;;;;5094549;28;20081;-78
2021/03/20 06:42:39;;;;;;;23.38;14.52;;;5.20;99.90;;;;;;5094727;28;20475;-79
2021/03/20 06:45:16;;;;;;;21.13;14.77;;;5.30;99.90;;;;;;5094420;28;20034;-77
2021/03/20 06:47:47;;;;;;;20.30;13.57;;;5.30;99.90;;;;;;5077243;28;20033;-75
2021/03/20 06:50:18;;;;;;;;;;;5.20;99.90;;;;;;5073101;28;20028;-76
2021/03/20 06:52:51;;;;;;;26.30;14.57;;;5.30;99.90;;;;;;5073561;28;19912;-79
2021/03/20 06:55:25;;;;;;;23.70;14.88;;;5.40;99.90;;;;;;5074420;28;20020;-79
2021/03/20 06:57:51;;;;;;;24.98;14.85;;;5.30;99.90;;;;;;5074502;28;20375;-78
2021/03/20 07:00:30;;;;;;;20.20;14.60;;;5.30;99.90;;;;;;5074568;28;20036;-79
2021/03/20 07:03:28;;;;;;;25.80;14.20;;;5.30;99.90;;;;;;5074085;28;20070;-77
2021/03/20 07:06:24;;;;;;;27.35;16.10;;;5.50;99.90;;;;;;5050121;28;20373;-77
2021/03/20 07:08:55;;;;;;;20.67;14.13;;;5.50;99.90;;;;;;5073514;28;20062;-76
2021/03/20 07:11:44;;;;;;;25.63;15.18;;;5.50;99.90;;;;;;5072362;28;20021;-76
2021/03/20 07:14:30;;;;;;;28.33;15.73;;;5.20;99.90;;;;;;5073596;28;20036;-77
2021/03/20 07:16:58;;;;;;;24.27;15.52;;;5.40;99.90;;;;;;5073946;28;20101;-78
2021/03/20 07:19:25;;;;;;;24.45;16.27;;;5.40;99.90;;;;;;5073748;28;20021;-78
2021/03/20 07:21:57;;;;;;;25.33;16.35;;;5.40;99.90;;;;;;5074196;28;20074;-77
2021/03/20 07:24:44;;;;;;;29.65;18.15;;;5.50;99.90;;;;;;5071857;28;20024;-77
2021/03/20 07:27:12;;;;;;;26.60;16.55;;;5.30;99.90;;;;;;5073574;28;20042;-76
2021/03/20 07:29:41;;;;;;;26.65;17.90;;;5.50;99.90;;;;;;5072642;28;20035;-76
2021/03/20 07:32:08;;;;;;;28.92;16.63;;;5.60;99.90;;;;;;5072221;28;20036;-78
2021/03/20 07:34:34;;;;;;;26.38;16.98;;;5.70;99.90;;;;;;5072938;28;20032;-77
2021/03/20 07:37:05;;;;;;;35.80;20.00;;;5.60;99.90;;;;;;5073297;28;20372;-77
2021/03/20 07:39:40;;;;;;;31.20;21.02;;;5.60;99.90;;;;;;5073348;28;20020;-78
2021/03/20 07:42:22;;;;;;;38.47;22.45;;;5.60;99.90;;;;;;5073231;28;20111;-77
2021/03/20 07:44:58;;;;;;;36.55;22.52;;;5.40;99.90;;;;;;5073076;28;20487;-79
2021/03/20 07:47:30;;;;;;;36.53;23.40;;;5.60;99.90;;;;;;5085197;28;20398;-78
2021/03/20 07:50:27;;;;;;;38.20;21.48;;;5.70;99.90;;;;;;5092429;28;20035;-78
2021/03/20 07:53:16;;;;;;;39.30;21.25;;;5.80;99.90;;;;;;5092728;28;20063;-78
2021/03/20 07:56:03;;;;;;;34.70;21.02;;;6.00;99.90;;;;;;5092163;28;20028;-77
2021/03/20 07:58:33;;;;;;;33.05;20.25;;;6.00;99.90;;;;;;5093389;28;20372;-78
2021/03/20 08:01:03;;;;;;;29.70;18.73;;;6.00;99.90;;;;;;5092132;28;20425;-77
2021/03/20 08:03:32;;;;;;;32.38;20.67;;;6.20;99.90;;;;;;5092731;28;20535;-77
2021/03/20 08:06:19;;;;;;;32.35;19.42;;;6.20;99.90;;;;;;5091541;28;20036;-77
2021/03/20 08:08:45;;;;;;;34.38;20.63;;;5.70;99.90;;;;;;5092608;28;20024;-78
2021/03/20 08:11:33;;;;;;;33.88;20.83;;;5.50;99.90;;;;;;5074095;28;20151;-77
2021/03/20 08:14:30;;;;;;;32.33;20.23;;;5.90;99.90;;;;;;5052020;28;20045;-81
2021/03/20 08:16:57;;;;;;;34.50;21.45;;;6.00;99.90;;;;;;5051540;28;20040;-77
2021/03/20 08:19:24;;;;;;;31.88;19.83;;;6.30;99.90;;;;;;5052045;28;20032;-77
2021/03/20 08:21:50;;;;;;;29.95;19.00;;;6.30;99.90;;;;;;5052032;28;20419;-75
2021/03/20 08:24:54;;;;;;;28.73;19.23;;;6.20;99.90;;;;;;5051825;28;20029;-75
2021/03/20 08:27:41;;;;;;;28.48;17.83;;;5.90;99.90;;;;;;5033734;28;20392;-76
2021/03/20 08:30:47;;;;;;;26.65;17.38;;;5.70;99.90;;;;;;5051546;28;20037;-77
2021/03/20 08:33:33;;;;;;;28.73;18.05;;;5.90;99.90;;;;;;5052393;28;20048;-79
2021/03/20 08:37:02;;;;;;;26.35;15.88;;;6.30;99.90;;;;;;5051811;28;20090;-77
2021/03/20 08:40:09;;;;;;;76.88;39.75;;;6.10;99.90;;;;;;5013375;28;20099;-79
2021/03/20 08:42:56;;;;;;;44.65;25.30;;;7.60;99.90;;;;;;5050464;28;20668;-79
2021/03/20 08:45:38;;;;;;;146.57;75.78;;;7.40;99.90;;;;;;5061304;28;20367;-79
2021/03/20 08:48:20;;;;;;;32.72;23.95;;;7.80;99.90;;;;;;5090974;28;20111;-79
2021/03/20 08:50:51;;;;;;;27.25;16.75;;;7.60;99.90;;;;;;5091346;28;20050;-77
2021/03/20 08:53:49;;;;;;;30.63;16.55;;;7.20;99.90;;;;;;5090849;28;20036;-79
2021/03/20 08:56:21;;;;;;;26.42;16.85;;;6.50;99.90;;;;;;5083070;28;20028;-79
2021/03/20 08:58:53;;;;;;;28.10;17.50;;;6.60;99.90;;;;;;5091835;28;20028;-78
2021/03/20 09:01:40;;;;;;;27.02;17.38;;;7.00;99.90;;;;;;5091701;28;20024;-79
2021/03/20 09:04:19;;;;;;;25.05;16.73;;;7.30;99.90;;;;;;5091296;28;20024;-77
2021/03/20 09:06:55;;;;;;;26.77;17.77;;;7.50;99.90;;;;;;5091499;28;20107;-78
2021/03/20 09:09:41;;;;;;;30.17;17.65;;;7.60;99.90;;;;;;5091533;28;20027;-76
2021/03/20 09:12:31;;;;;;;29.70;19.75;;;7.30;99.90;;;;;;5089294;28;20035;-77
2021/03/20 09:14:57;;;;;;;28.65;18.05;;;7.10;99.90;;;;;;5091180;28;20029;-78
2021/03/20 09:17:30;;;;;;;29.95;17.92;;;7.00;99.90;;;;;;5091601;28;20024;-77
2021/03/20 09:20:18;;;;;;;27.67;18.10;;;7.00;99.90;;;;;;5090487;28;20078;-77
2021/03/20 09:22:47;;;;;;;27.45;17.38;;;6.90;99.90;;;;;;5090326;28;20157;-76
2021/03/20 09:25:36;;;;;;;25.80;17.77;;;6.70;99.90;;;;;;5090191;28;20036;-78
2021/03/20 09:28:15;;;;;;;95.47;53.67;;;6.90;99.90;;;;;;5062952;28;20079;-79
2021/03/20 09:30:54;;;;;;;69.28;41.30;;;7.60;99.90;;;;;;5049559;28;20052;-75
2021/03/20 09:33:20;;;;;;;28.83;19.95;;;7.80;99.90;;;;;;5048695;28;20404;-76
2021/03/20 09:35:49;;;;;;;26.75;19.15;;;7.20;99.90;;;;;;5059773;28;20497;-76
2021/03/20 09:38:35;;;;;;;26.63;18.23;;;6.80;99.90;;;;;;5067982;28;20031;-78
2021/03/20 09:41:06;;;;;;;27.48;17.77;;;6.90;99.90;;;;;;5066903;28;20513;-76
2021/03/20 09:43:53;;;;;;;27.58;17.67;;;6.90;99.90;;;;;;5069424;28;20161;-76
2021/03/20 09:46:38;;;;;;;28.15;17.60;;;6.70;99.90;;;;;;5069050;28;20036;-78
2021/03/20 09:49:07;;;;;;;22.88;15.32;;;6.50;99.90;;;;;;5069498;28;20032;-77
2021/03/20 09:51:59;;;;;;;25.52;17.42;;;6.60;99.90;;;;;;5070353;28;20048;-78
2021/03/20 09:54:26;;;;;;;26.27;17.52;;;6.70;99.90;;;;;;5070839;28;20357;-78
2021/03/20 09:56:52;;;;;;;24.20;15.40;;;6.80;99.90;;;;;;5065878;28;20028;-77
2021/03/20 09:59:27;;;;;;;30.20;18.75;;;6.60;99.90;;;;;;5067179;28;20097;-78
2021/03/20 10:01:54;;;;;;;30.13;21.42;;;6.90;99.90;;;;;;5068778;28;20028;-79
2021/03/20 10:04:32;;;;;;;29.08;18.85;;;6.80;99.90;;;;;;5068704;28;20377;-77
2021/03/20 10:07:24;;;;;;;20.38;15.38;;;6.80;99.90;;;;;;5061029;28;20028;-76
2021/03/20 10:10:13;;;;;;;22.10;14.80;;;6.70;99.90;;;;;;5066407;28;20041;-77
2021/03/20 10:12:44;;;;;;;21.88;14.77;;;6.50;99.90;;;;;;5071307;28;20056;-77
2021/03/20 10:15:16;;;;;;;19.50;13.63;;;6.30;99.90;;;;;;5073657;28;20027;-77
2021/03/20 10:18:09;;;;;;;22.20;14.68;;;6.50;99.90;;;;;;5073872;28;20051;-78
2021/03/20 10:20:44;;;;;;;19.90;13.90;;;6.50;99.90;;;;;;5068722;28;20036;-78
2021/03/20 10:23:45;;;;;;;23.23;13.30;;;6.30;99.90;;;;;;5073625;28;20028;-78
2021/03/20 10:26:25;;;;;;;20.48;14.60;;;6.30;99.90;;;;;;5073719;28;20095;-79
2021/03/20 10:28:58;;;;;;;21.02;14.27;;;6.40;99.90;;;;;;5073685;28;20035;-78
2021/03/20 10:31:26;;;;;;;22.55;13.43;;;6.40;99.90;;;;;;5065951;28;20055;-79
2021/03/20 10:34:08;;;;;;;24.50;13.88;;;6.40;99.90;;;;;;5061465;28;20107;-78
2021/03/20 10:36:47;;;;;;;18.45;13.15;;;6.30;99.90;;;;;;5063071;28;20468;-76
2021/03/20 10:39:20;;;;;;;19.20;12.75;;;6.50;99.90;;;;;;5062926;28;20044;-76
2021/03/20 10:41:47;;;;;;;18.08;12.23;;;6.50;99.90;;;;;;5062201;28;20028;-79
2021/03/20 10:44:40;;;;;;;18.42;12.85;;;6.40;99.90;;;;;;5061541;28;20435;-78
2021/03/20 10:47:23;;;;;;;23.88;13.35;;;6.40;99.90;;;;;;5062853;28;20108;-79
2021/03/20 10:50:12;;;;;;;19.42;14.20;;;6.40;99.90;;;;;;5057971;28;20427;-78
2021/03/20 10:52:42;;;;;;;19.60;12.75;;;6.40;99.90;;;;;;5049506;28;20056;-79
2021/03/20 10:55:39;;;;;;;18.50;12.55;;;6.10;99.90;;;;;;5052403;28;20024;-80
2021/03/20 10:58:08;;;;;;;15.05;11.45;;;6.10;99.90;;;;;;5054499;28;20020;-79
2021/03/20 11:00:51;;;;;;;18.88;12.43;;;6.20;99.90;;;;;;5072227;28;20032;-78
2021/03/20 11:03:36;;;;;;;17.17;11.52;;;6.20;99.90;;;;;;5072701;28;20035;-79
2021/03/20 11:06:12;;;;;;;20.77;13.32;;;6.20;99.90;;;;;;5069487;28;20020;-79
2021/03/20 11:08:39;;;;;;;21.10;13.48;;;6.30;99.90;;;;;;5071117;28;20032;-78
2021/03/20 11:11:36;;;;;;;19.48;13.93;;;6.10;99.90;;;;;;5071975;28;20024;-78
2021/03/20 11:14:10;;;;;;;20.23;14.73;;;6.10;99.90;;;;;;5071920;28;20039;-78
2021/03/20 11:16:57;;;;;;;20.40;14.57;;;6.20;99.90;;;;;;5068439;28;20043;-79
2021/03/20 11:19:28;;;;;;;19.75;12.35;;;6.30;99.90;;;;;;5072600;28;20096;-78
2021/03/20 11:22:01;;;;;;;20.88;14.32;;;6.10;99.90;;;;;;5071343;28;20090;-79
2021/03/20 11:24:36;;;;;;;21.27;13.90;;;6.20;99.90;;;;;;5072646;28;20445;-78
2021/03/20 11:27:18;;;;;;;17.23;12.65;;;6.20;99.90;;;;;;5071549;28;20027;-78
2021/03/20 11:29:47;;;;;;;21.35;15.35;;;6.20;99.90;;;;;;5054634;28;20021;-78
2021/03/20 11:32:28;;;;;;;58.22;35.67;;;6.30;99.90;;;;;;5070910;28;20028;-80
2021/03/20 11:35:13;;;;;;;22.42;16.73;;;6.50;99.90;;;;;;5071341;28;20486;-77
2021/03/20 11:37:39;;;;;;;22.35;14.98;;;6.50;99.90;;;;;;5071174;28;20033;-79
2021/03/20 11:40:08;;;;;;;19.88;13.43;;;6.00;99.90;;;;;;5071425;28;20075;-75
2021/03/20 11:42:39;;;;;;;18.60;14.25;;;6.10;99.90;;;;;;5070950;28;20025;-76
2021/03/20 11:45:29;;;;;;;20.05;13.90;;;6.20;99.90;;;;;;5070961;28;20025;-77
2021/03/20 11:47:58;;;;;;;21.33;14.75;;;6.30;99.90;;;;;;5049067;28;20044;-79
2021/03/20 11:50:28;;;;;;;23.42;15.45;;;6.30;99.90;;;;;;5054542;28;20045;-78
2021/03/20 11:53:16;;;;;;;22.00;14.65;;;6.20;99.90;;;;;;5053682;28;20143;-78
2021/03/20 11:55:42;;;;;;;24.70;16.50;;;6.10;99.90;;;;;;5054440;28;20098;-78
2021/03/20 11:58:28;;;;;;;59.63;31.67;;;6.20;99.90;;;;;;5054262;28;20032;-76
2021/03/20 12:00:56;;;;;;;94.85;51.00;;;6.10;99.90;;;;;;5053284;28;20029;-78
2021/03/20 12:03:21;;;;;;;146.45;74.47;;;6.60;99.90;;;;;;5071649;28;20025;-78
2021/03/20 12:05:49;;;;;;;23.02;17.55;;;6.60;99.90;;;;;;5053779;28;20035;-75
2021/03/20 12:08:33;;;;;;;21.63;14.63;;;6.30;99.90;;;;;;5053972;28;20029;-76
2021/03/20 12:11:14;;;;;;;18.38;13.23;;;6.20;99.90;;;;;;5053473;28;20530;-77
2021/03/20 12:13:43;;;;;;;;;;;6.10;99.90;;;;;;5054217;28;20036;-78
2021/03/20 12:16:29;;;;;;;15.63;11.82;;;6.10;99.90;;;;;;5053607;28;19904;-77
2021/03/20 12:19:19;;;;;;;17.13;13.52;;;5.90;99.90;;;;;;5053117;28;20024;-77
2021/03/20 12:22:04;;;;;;;19.80;12.95;;;5.70;99.90;;;;;;5053676;28;20123;-74
2021/03/20 12:24:45;;;;;;;17.85;13.18;;;5.50;99.90;;;;;;5053515;28;20044;-75
2021/03/20 12:27:40;;;;;;;18.10;13.10;;;5.80;99.90;;;;;;5053524;28;20372;-76
2021/03/20 12:30:18;;;;;;;17.70;12.65;;;6.10;99.90;;;;;;5040445;28;20044;-78
2021/03/20 12:32:49;;;;;;;17.55;12.52;;;6.30;99.90;;;;;;5053588;28;20033;-77
2021/03/20 12:35:26;;;;;;;17.88;12.88;;;6.30;99.90;;;;;;5053447;28;20076;-77
2021/03/20 12:38:27;;;;;;;18.90;13.23;;;6.20;99.90;;;;;;5090426;28;20039;-78
2021/03/20 12:40:52;;;;;;;17.20;13.15;;;6.50;99.90;;;;;;5073676;28;20376;-78
2021/03/20 12:43:27;;;;;;;17.10;12.48;;;6.40;99.90;;;;;;5090047;28;20475;-76
2021/03/20 12:45:55;;;;;;;17.35;13.18;;;6.40;99.90;;;;;;5091372;28;20020;-77
2021/03/20 12:48:23;;;;;;;20.67;13.00;;;6.20;99.90;;;;;;5087928;28;20028;-76
2021/03/20 12:50:49;;;;;;;18.60;12.68;;;6.30;99.90;;;;;;5088726;28;20051;-76
2021/03/20 12:53:15;;;;;;;18.35;13.27;;;6.50;99.90;;;;;;5090508;28;20048;-75
2021/03/20 12:55:41;;;;;;;17.85;13.35;;;6.50;99.90;;;;;;5091240;28;20034;-76
2021/03/20 12:58:07;;;;;;;17.75;13.15;;;6.60;99.90;;;;;;5091125;28;20032;-76
2021/03/20 13:00:33;;;;;;;19.15;13.07;;;6.40;99.90;;;;;;5091380;28;20024;-76
2021/03/20 13:03:00;;;;;;;19.67;13.82;;;6.30;99.90;;;;;;5091252;28;20030;-76
2021/03/20 13:05:30;;;;;;;23.10;14.90;;;6.10;99.90;;;;;;5090833;28;20406;-77
2021/03/20 13:07:56;;;;;;;23.90;15.15;;;6.30;99.90;;;;;;5091089;28;20034;-76
2021/03/20 13:10:23;;;;;;;100.65;56.80;;;6.30;99.90;;;;;;5072886;28;20024;-77
2021/03/20 13:12:48;;;;;;;32.95;22.40;;;6.40;99.90;;;;;;5072729;28;20131;-76
2021/03/20 13:15:16;;;;;;;18.85;13.88;;;6.50;99.90;;;;;;5072782;28;20386;-76
2021/03/20 13:17:43;;;;;;;20.75;14.82;;;6.40;99.90;;;;;;5090928;28;20024;-77
2021/03/20 13:20:10;;;;;;;21.73;14.35;;;6.40;99.90;;;;;;5072678;28;20020;-77
2021/03/20 13:22:36;;;;;;;20.40;13.70;;;6.20;99.90;;;;;;5072901;28;20495;-76
2021/03/20 13:25:04;;;;;;;17.48;13.00;;;6.00;99.90;;;;;;5090895;28;20082;-78